createdAt,value
2022-12-08T11:22:28.843Z,63.31
2022-12-08T11:25:31.351Z,63.65
2022-12-08T11:28:33.504Z,64.52
2022-12-08T11:31:44.014Z,65.01
2022-12-08T11:35:07.554Z,64.45
2022-12-08T11:38:23.363Z,64.58
2022-12-08T11:42:07.698Z,64.87
2022-12-08T11:45:30.542Z,64.95
2022-12-08T11:48:42.447Z,64.90
2022-12-08T11:51:51.551Z,64.73
2022-12-08T11:55:17.511Z,64.88
2022-12-08T11:58:29.405Z,64.88
2022-12-08T12:01:31.341Z,64.01
2022-12-08T12:07:26.479Z,63.85
2022-12-08T12:12:13.696Z,63.55
2022-12-08T12:15:21.667Z,63.25
2022-12-08T12:18:24.948Z,63.83
2022-12-08T12:21:38.104Z,63.48
2022-12-08T12:24:44.913Z,63.35
2022-12-08T12:27:57.319Z,63.54
2022-12-08T12:31:06.557Z,62.88
2022-12-08T12:34:20.116Z,62.91
2022-12-08T12:37:45.276Z,62.77
2022-12-08T12:40:50.925Z,62.77
2022-12-08T12:44:08.528Z,62.50
2022-12-08T12:47:18.218Z,62.46
2022-12-08T12:50:50.476Z,63.59
2022-12-08T12:53:53.571Z,62.94
2022-12-08T12:57:08.660Z,64.16
2022-12-08T13:00:25.093Z,63.96
2022-12-08T13:03:28.466Z,63.63
2022-12-08T13:06:43.863Z,63.30
2022-12-08T13:09:59.141Z,63.08
2022-12-08T13:13:10.402Z,63.02
2022-12-08T13:16:22.699Z,63.49
2022-12-08T13:19:26.794Z,62.60
2022-12-08T13:22:50.456Z,62.04
2022-12-08T13:26:08.390Z,63.24
2022-12-08T13:29:25.952Z,63.64
2022-12-08T13:33:19.698Z,63.92
2022-12-08T13:36:26.175Z,64.22
2022-12-08T13:39:55.103Z,64.79
2022-12-08T13:43:15.423Z,64.79
2022-12-08T13:57:48.169Z,63.87
2022-12-08T14:01:10.172Z,63.28
2022-12-08T14:04:47.886Z,63.50
2022-12-08T14:07:51.271Z,63.51
2022-12-08T14:11:02.741Z,63.42
2022-12-08T14:14:45.849Z,65.54
2022-12-08T14:17:52.381Z,65.56
2022-12-08T14:21:20.897Z,65.63
2022-12-08T14:24:26.797Z,66.76
2022-12-08T14:27:34.977Z,65.45
2022-12-08T14:30:39.680Z,66.29
2022-12-08T14:33:42.654Z,66.65
2022-12-08T14:36:44.905Z,67.12
2022-12-08T14:39:47.674Z,66.93
2022-12-08T14:43:15.415Z,66.23
2022-12-08T14:46:25.931Z,66.18
2022-12-08T14:49:36.297Z,65.62
2022-12-08T14:52:47.343Z,66.60
2022-12-08T14:55:50.020Z,65.93
2022-12-08T14:59:13.059Z,66.31
2022-12-08T15:02:15.592Z,66.55
2022-12-08T15:05:45.363Z,66.56
2022-12-08T15:09:16.306Z,66.51
2022-12-08T15:12:33.301Z,66.96
2022-12-08T15:15:55.564Z,66.58
2022-12-08T15:19:29.759Z,66.99
2022-12-08T15:22:34.667Z,67.58
2022-12-08T15:26:07.002Z,66.98
2022-12-08T15:29:26.241Z,67.29
2022-12-08T15:32:30.604Z,68.03
2022-12-08T15:35:37.353Z,68.08
2022-12-08T15:38:43.806Z,68.34
2022-12-08T15:41:46.632Z,68.77
2022-12-08T15:44:48.837Z,68.78
2022-12-08T15:47:50.887Z,69.00
2022-12-08T15:50:54.207Z,67.76
2022-12-08T15:54:00.189Z,67.71
2022-12-08T15:57:19.219Z,68.52
2022-12-08T16:07:30.791Z,67.99
2022-12-08T16:11:08.440Z,67.67
2022-12-08T16:13:58.438Z,67.13
2022-12-08T16:17:05.340Z,67.55
2022-12-08T16:20:12.570Z,68.43
2022-12-08T16:23:41.083Z,68.33
2022-12-08T16:30:09.005Z,72.23
2022-12-08T16:33:12.563Z,72.63
2022-12-08T16:36:16.333Z,71.81
2022-12-08T16:39:18.408Z,72.38
2022-12-08T16:42:44.849Z,73.08
2022-12-08T16:45:48.328Z,73.11
2022-12-08T16:48:53.445Z,73.28
2022-12-08T16:52:04.987Z,72.88
2022-12-08T16:55:15.249Z,73.05
2022-12-08T16:58:26.820Z,72.24
2022-12-08T17:01:29.537Z,72.05
2022-12-08T17:04:32.571Z,72.29
2022-12-08T17:07:37.057Z,72.01
2022-12-08T17:10:41.780Z,71.96
2022-12-08T17:13:47.162Z,72.00
2022-12-08T17:16:49.458Z,72.13
2022-12-08T17:19:53.743Z,73.21
2022-12-08T17:22:59.494Z,71.60
2022-12-08T17:26:06.272Z,72.23
2022-12-08T17:29:11.085Z,73.34
2022-12-08T17:32:14.525Z,74.17
2022-12-08T17:35:17.037Z,71.43
2022-12-08T17:38:22.255Z,72.12
2022-12-08T17:41:25.417Z,72.43
2022-12-08T17:44:28.385Z,73.20
2022-12-08T17:47:30.656Z,72.88
2022-12-08T17:50:33.735Z,73.29
2022-12-08T17:53:37.496Z,73.07
2022-12-08T17:56:42.234Z,73.41
2022-12-08T17:59:49.206Z,72.63
2022-12-08T18:02:52.551Z,72.78
2022-12-08T18:05:57.196Z,72.34
2022-12-08T18:09:00.878Z,73.39
2022-12-08T18:12:04.390Z,72.63
2022-12-08T18:15:12.041Z,72.41
2022-12-08T18:18:15.474Z,72.85
2022-12-08T18:21:23.553Z,72.70
2022-12-08T18:24:25.881Z,71.09
2022-12-08T18:27:27.804Z,71.32
2022-12-08T18:30:30.667Z,71.49
2022-12-08T18:33:33.254Z,70.86
2022-12-08T18:36:37.047Z,72.34
2022-12-08T18:39:39.447Z,72.04
2022-12-08T18:42:42.922Z,71.19
2022-12-08T18:45:45.613Z,70.68
2022-12-08T18:48:50.207Z,70.60
2022-12-08T18:51:53.476Z,69.93
2022-12-08T18:55:07.513Z,70.07
2022-12-08T18:58:12.112Z,70.41
2022-12-08T19:01:15.816Z,69.81
2022-12-08T19:04:38.553Z,69.36
2022-12-08T19:07:43.759Z,69.57
2022-12-08T19:10:45.903Z,70.24
2022-12-08T19:13:49.991Z,69.61
2022-12-08T19:16:53.079Z,70.28
2022-12-08T19:19:55.491Z,69.82
2022-12-08T19:22:58.508Z,70.19
2022-12-08T19:26:01.541Z,70.40
2022-12-08T19:29:03.898Z,70.62
2022-12-08T19:32:08.142Z,70.95
2022-12-08T19:35:10.291Z,70.37
2022-12-08T19:38:13.127Z,70.53
2022-12-08T19:41:34.560Z,70.65
2022-12-08T19:44:55.501Z,71.18
2022-12-08T19:47:57.695Z,72.32
2022-12-08T19:51:00.568Z,70.88
2022-12-08T19:54:02.712Z,71.29
2022-12-08T19:57:04.728Z,71.39
2022-12-08T20:00:10.328Z,71.71
2022-12-08T20:03:22.664Z,72.41
2022-12-08T20:06:26.688Z,72.25
2022-12-08T20:09:29.029Z,72.92
2022-12-08T20:12:31.569Z,72.66
2022-12-08T20:15:33.840Z,72.76
2022-12-08T20:18:39.064Z,72.77
2022-12-08T20:21:41.499Z,73.18
2022-12-08T20:24:43.480Z,73.08
2022-12-08T20:27:45.956Z,73.65
2022-12-08T20:30:49.615Z,73.93
2022-12-08T20:33:52.595Z,74.04
2022-12-08T20:36:55.006Z,73.68
2022-12-08T20:39:57.327Z,73.93
2022-12-08T20:42:59.984Z,73.55
2022-12-08T20:46:10.539Z,74.50
2022-12-08T20:49:13.430Z,74.91
2022-12-08T20:52:18.479Z,75.26
2022-12-08T20:55:20.662Z,75.35
2022-12-08T20:58:24.656Z,75.67
2022-12-08T21:01:27.421Z,75.31
2022-12-08T21:04:29.880Z,74.71
2022-12-08T21:07:34.272Z,75.03
2022-12-08T21:10:42.206Z,74.81
2022-12-08T21:13:46.952Z,75.32
2022-12-08T21:16:54.604Z,74.54
2022-12-08T21:19:58.236Z,74.21
2022-12-08T21:23:00.932Z,74.19
2022-12-08T21:26:03.534Z,74.83
2022-12-08T21:29:07.196Z,74.84
2022-12-08T21:32:09.380Z,75.57
2022-12-08T21:35:11.802Z,75.28
2022-12-08T21:38:14.058Z,75.57
2022-12-08T21:41:38.810Z,76.38
2022-12-08T21:44:40.876Z,76.05
2022-12-08T21:47:44.218Z,75.85
2022-12-08T21:50:47.234Z,77.06
2022-12-08T21:53:49.328Z,76.18
2022-12-08T21:56:51.677Z,76.58
2022-12-08T21:59:53.764Z,77.58
2022-12-08T22:02:56.447Z,75.63
2022-12-08T22:05:58.868Z,76.79
2022-12-08T22:09:07.235Z,75.91
2022-12-08T22:12:11.848Z,75.41
2022-12-08T22:15:14.827Z,76.38
2022-12-08T22:18:17.294Z,76.10
2022-12-08T22:21:19.563Z,75.97
2022-12-08T22:24:21.759Z,75.65
2022-12-08T22:27:23.734Z,76.67
2022-12-08T22:30:25.881Z,76.35
2022-12-08T22:33:31.874Z,76.98
2022-12-08T22:36:34.383Z,76.20
2022-12-08T22:39:36.545Z,76.16
2022-12-08T22:42:38.653Z,76.18
2022-12-08T22:45:41.116Z,76.27
2022-12-08T22:48:44.483Z,76.80
2022-12-08T22:51:46.875Z,76.91
2022-12-08T22:54:48.893Z,76.93
2022-12-08T22:57:50.910Z,76.66
2022-12-08T23:00:52.923Z,77.07
2022-12-08T23:03:55.749Z,77.19
2022-12-08T23:06:58.042Z,77.18
2022-12-08T23:10:00.361Z,77.22
2022-12-08T23:13:04.180Z,76.97
2022-12-08T23:16:08.990Z,77.62
2022-12-08T23:19:11.075Z,77.68
2022-12-08T23:22:13.156Z,77.77
2022-12-08T23:25:15.251Z,77.29
2022-12-08T23:28:17.339Z,78.67
2022-12-08T23:31:20.462Z,79.02
2022-12-08T23:34:22.678Z,78.93
2022-12-08T23:37:25.083Z,78.03
2022-12-08T23:40:28.525Z,78.72
2022-12-08T23:43:30.908Z,78.95
2022-12-08T23:46:33.069Z,77.76
2022-12-08T23:49:36.617Z,78.43
2022-12-08T23:52:40.271Z,78.58
2022-12-08T23:55:42.949Z,78.48
2022-12-08T23:58:45.974Z,78.23
